sensor_id;sensor_type;location;lat;lon;timestamp;P1;durP1;ratioP1;P2;durP2;ratioP2
21777;SDS011;11050;52.222;20.916;2024-03-08T00:00:08;60.50;;;27.03;;
21777;SDS011;11050;52.222;20.916;2024-03-08T00:02:40;60.03;;;27.70;;
21777;SDS011;11050;52.222;20.916;2024-03-08T00:05:08;58.80;;;28.80;;
21777;SDS011;11050;52.222;20.916;2024-03-08T00:07:34;63.10;;;29.53;;
21777;SDS011;11050;52.222;20.916;2024-03-08T00:10:02;61.47;;;29.47;;
21777;SDS011;11050;52.222;20.916;2024-03-08T00:12:36;67.20;;;29.47;;
21777;SDS011;11050;52.222;20.916;2024-03-08T00:15:10;61.20;;;28.43;;
21777;SDS011;11050;52.222;20.916;2024-03-08T00:17:39;67.97;;;29.97;;
21777;SDS011;11050;52.222;20.916;2024-03-08T00:20:05;55.07;;;25.97;;
21777;SDS011;11050;52.222;20.916;2024-03-08T00:22:35;65.10;;;30.03;;
21777;SDS011;11050;52.222;20.916;2024-03-08T00:25:03;69.30;;;31.20;;
21777;SDS011;11050;52.222;20.916;2024-03-08T00:27:30;67.60;;;29.10;;
21777;SDS011;11050;52.222;20.916;2024-03-08T00:29:59;67.33;;;28.80;;
21777;SDS011;11050;52.222;20.916;2024-03-08T00:32:26;65.73;;;28.83;;
21777;SDS011;11050;52.222;20.916;2024-03-08T00:34:56;63.93;;;30.47;;
21777;SDS011;11050;52.222;20.916;2024-03-08T00:37:23;63.47;;;30.07;;
21777;SDS011;11050;52.222;20.916;2024-03-08T00:39:49;70.20;;;30.90;;
21777;SDS011;11050;52.222;20.916;2024-03-08T00:42:16;67.67;;;29.90;;
21777;SDS011;11050;52.222;20.916;2024-03-08T00:44:43;68.60;;;29.60;;
21777;SDS011;11050;52.222;20.916;2024-03-08T00:47:09;64.57;;;29.90;;
21777;SDS011;11050;52.222;20.916;2024-03-08T00:49:35;67.33;;;29.97;;
21777;SDS011;11050;52.222;20.916;2024-03-08T00:52:03;61.27;;;28.80;;
21777;SDS011;11050;52.222;20.916;2024-03-08T00:54:33;60.97;;;28.80;;
21777;SDS011;11050;52.222;20.916;2024-03-08T00:57:00;65.77;;;29.70;;
21777;SDS011;11050;52.222;20.916;2024-03-08T00:59:28;66.73;;;30.23;;
21777;SDS011;11050;52.222;20.916;2024-03-08T01:01:57;67.73;;;29.90;;
21777;SDS011;11050;52.222;20.916;2024-03-08T01:04:25;52.47;;;24.93;;
21777;SDS011;11050;52.222;20.916;2024-03-08T01:06:54;56.60;;;27.63;;
21777;SDS011;11050;52.222;20.916;2024-03-08T01:09:23;64.90;;;28.33;;
21777;SDS011;11050;52.222;20.916;2024-03-08T01:11:49;64.33;;;28.40;;
21777;SDS011;11050;52.222;20.916;2024-03-08T01:14:16;59.00;;;27.93;;
21777;SDS011;11050;52.222;20.916;2024-03-08T01:16:41;62.27;;;28.27;;
21777;SDS011;11050;52.222;20.916;2024-03-08T01:19:07;60.37;;;27.67;;
21777;SDS011;11050;52.222;20.916;2024-03-08T01:21:33;61.00;;;28.93;;
21777;SDS011;11050;52.222;20.916;2024-03-08T01:23:59;57.33;;;28.07;;
21777;SDS011;11050;52.222;20.916;2024-03-08T01:26:25;62.70;;;28.13;;
21777;SDS011;11050;52.222;20.916;2024-03-08T01:28:51;66.43;;;28.83;;
21777;SDS011;11050;52.222;20.916;2024-03-08T01:31:16;60.93;;;27.57;;
21777;SDS011;11050;52.222;20.916;2024-03-08T01:33:42;66.00;;;29.93;;
21777;SDS011;11050;52.222;20.916;2024-03-08T01:36:08;65.13;;;29.13;;
21777;SDS011;11050;52.222;20.916;2024-03-08T01:38:34;62.67;;;29.00;;
21777;SDS011;11050;52.222;20.916;2024-03-08T01:41:01;61.30;;;27.47;;
21777;SDS011;11050;52.222;20.916;2024-03-08T01:43:28;67.20;;;29.73;;
21777;SDS011;11050;52.222;20.916;2024-03-08T01:45:55;62.90;;;29.80;;
21777;SDS011;11050;52.222;20.916;2024-03-08T01:48:30;62.50;;;29.63;;
21777;SDS011;11050;52.222;20.916;2024-03-08T01:50:56;68.17;;;32.07;;
21777;SDS011;11050;52.222;20.916;2024-03-08T01:53:26;67.00;;;30.33;;
21777;SDS011;11050;52.222;20.916;2024-03-08T01:55:55;66.50;;;29.90;;
21777;SDS011;11050;52.222;20.916;2024-03-08T01:58:23;69.27;;;31.37;;
21777;SDS011;11050;52.222;20.916;2024-03-08T02:00:52;67.33;;;29.87;;
21777;SDS011;11050;52.222;20.916;2024-03-08T02:03:18;70.20;;;31.33;;
21777;SDS011;11050;52.222;20.916;2024-03-08T02:05:44;72.23;;;31.20;;
21777;SDS011;11050;52.222;20.916;2024-03-08T02:08:10;65.77;;;30.43;;
21777;SDS011;11050;52.222;20.916;2024-03-08T02:10:38;66.67;;;30.50;;
21777;SDS011;11050;52.222;20.916;2024-03-08T02:13:05;73.30;;;31.43;;
21777;SDS011;11050;52.222;20.916;2024-03-08T02:18:27;65.00;;;30.37;;
21777;SDS011;11050;52.222;20.916;2024-03-08T02:20:55;75.37;;;30.80;;
21777;SDS011;11050;52.222;20.916;2024-03-08T02:23:22;64.37;;;30.57;;
21777;SDS011;11050;52.222;20.916;2024-03-08T02:25:52;67.63;;;30.73;;
21777;SDS011;11050;52.222;20.916;2024-03-08T02:28:20;68.83;;;31.33;;
21777;SDS011;11050;52.222;20.916;2024-03-08T02:30:49;65.23;;;29.67;;
21777;SDS011;11050;52.222;20.916;2024-03-08T02:33:16;65.43;;;29.97;;
21777;SDS011;11050;52.222;20.916;2024-03-08T02:35:46;67.60;;;31.43;;
21777;SDS011;11050;52.222;20.916;2024-03-08T02:38:14;65.53;;;31.57;;
21777;SDS011;11050;52.222;20.916;2024-03-08T02:40:45;66.60;;;30.97;;
21777;SDS011;11050;52.222;20.916;2024-03-08T02:43:13;69.40;;;32.13;;
21777;SDS011;11050;52.222;20.916;2024-03-08T02:45:40;70.30;;;31.30;;
21777;SDS011;11050;52.222;20.916;2024-03-08T02:48:10;67.10;;;30.03;;
21777;SDS011;11050;52.222;20.916;2024-03-08T02:50:37;71.03;;;31.83;;
21777;SDS011;11050;52.222;20.916;2024-03-08T02:53:05;68.00;;;30.27;;
21777;SDS011;11050;52.222;20.916;2024-03-08T02:55:32;70.53;;;29.67;;
21777;SDS011;11050;52.222;20.916;2024-03-08T02:58:01;73.10;;;31.80;;
21777;SDS011;11050;52.222;20.916;2024-03-08T03:00:30;74.27;;;30.80;;
21777;SDS011;11050;52.222;20.916;2024-03-08T03:02:56;69.70;;;29.63;;
21777;SDS011;11050;52.222;20.916;2024-03-08T03:05:22;66.87;;;30.47;;
21777;SDS011;11050;52.222;20.916;2024-03-08T03:07:49;68.73;;;31.27;;
21777;SDS011;11050;52.222;20.916;2024-03-08T03:10:18;74.70;;;30.77;;
21777;SDS011;11050;52.222;20.916;2024-03-08T03:12:46;76.30;;;31.30;;
21777;SDS011;11050;52.222;20.916;2024-03-08T03:15:16;67.47;;;29.43;;
21777;SDS011;11050;52.222;20.916;2024-03-08T03:17:46;72.43;;;31.73;;
21777;SDS011;11050;52.222;20.916;2024-03-08T03:20:18;64.80;;;29.67;;
21777;SDS011;11050;52.222;20.916;2024-03-08T03:22:51;77.70;;;32.37;;
21777;SDS011;11050;52.222;20.916;2024-03-08T03:25:18;72.23;;;31.87;;
21777;SDS011;11050;52.222;20.916;2024-03-08T03:27:50;74.30;;;32.70;;
21777;SDS011;11050;52.222;20.916;2024-03-08T03:30:17;69.77;;;31.03;;
21777;SDS011;11050;52.222;20.916;2024-03-08T03:32:46;74.97;;;31.33;;
21777;SDS011;11050;52.222;20.916;2024-03-08T03:35:13;71.73;;;33.07;;
21777;SDS011;11050;52.222;20.916;2024-03-08T03:37:42;73.97;;;33.23;;
21777;SDS011;11050;52.222;20.916;2024-03-08T03:40:10;77.20;;;33.83;;
21777;SDS011;11050;52.222;20.916;2024-03-08T03:42:38;76.37;;;34.30;;
21777;SDS011;11050;52.222;20.916;2024-03-08T03:45:05;69.20;;;31.80;;
21777;SDS011;11050;52.222;20.916;2024-03-08T03:47:31;77.70;;;33.83;;
21777;SDS011;11050;52.222;20.916;2024-03-08T03:49:57;75.27;;;32.30;;
21777;SDS011;11050;52.222;20.916;2024-03-08T03:52:26;72.93;;;34.63;;
21777;SDS011;11050;52.222;20.916;2024-03-08T03:54:53;84.43;;;35.07;;
21777;SDS011;11050;52.222;20.916;2024-03-08T03:57:18;77.13;;;34.47;;
21777;SDS011;11050;52.222;20.916;2024-03-08T03:59:45;75.83;;;34.03;;
21777;SDS011;11050;52.222;20.916;2024-03-08T04:02:12;79.30;;;34.67;;
21777;SDS011;11050;52.222;20.916;2024-03-08T04:04:38;83.63;;;34.87;;
21777;SDS011;11050;52.222;20.916;2024-03-08T04:07:04;80.67;;;35.73;;
21777;SDS011;11050;52.222;20.916;2024-03-08T04:09:30;76.37;;;34.60;;
21777;SDS011;11050;52.222;20.916;2024-03-08T04:11:55;82.70;;;34.63;;
21777;SDS011;11050;52.222;20.916;2024-03-08T04:14:21;88.00;;;35.70;;
21777;SDS011;11050;52.222;20.916;2024-03-08T04:16:48;80.20;;;35.83;;
21777;SDS011;11050;52.222;20.916;2024-03-08T04:19:14;85.23;;;36.57;;
21777;SDS011;11050;52.222;20.916;2024-03-08T04:21:40;79.47;;;33.93;;
21777;SDS011;11050;52.222;20.916;2024-03-08T04:24:07;78.80;;;33.47;;
21777;SDS011;11050;52.222;20.916;2024-03-08T04:26:34;80.40;;;34.17;;
21777;SDS011;11050;52.222;20.916;2024-03-08T04:28:59;81.47;;;34.73;;
21777;SDS011;11050;52.222;20.916;2024-03-08T04:31:26;85.13;;;36.60;;
21777;SDS011;11050;52.222;20.916;2024-03-08T04:33:52;85.40;;;37.13;;
21777;SDS011;11050;52.222;20.916;2024-03-08T04:36:18;79.70;;;36.63;;
21777;SDS011;11050;52.222;20.916;2024-03-08T04:38:44;88.13;;;36.80;;
21777;SDS011;11050;52.222;20.916;2024-03-08T04:41:10;83.73;;;38.20;;
21777;SDS011;11050;52.222;20.916;2024-03-08T04:43:36;79.27;;;34.90;;
21777;SDS011;11050;52.222;20.916;2024-03-08T04:46:02;83.10;;;35.03;;
21777;SDS011;11050;52.222;20.916;2024-03-08T04:48:28;84.90;;;35.93;;
21777;SDS011;11050;52.222;20.916;2024-03-08T04:50:54;81.17;;;37.37;;
21777;SDS011;11050;52.222;20.916;2024-03-08T04:53:20;85.63;;;34.80;;
21777;SDS011;11050;52.222;20.916;2024-03-08T04:55:46;80.00;;;35.13;;
21777;SDS011;11050;52.222;20.916;2024-03-08T04:58:12;85.30;;;37.00;;
21777;SDS011;11050;52.222;20.916;2024-03-08T05:00:38;80.00;;;34.20;;
21777;SDS011;11050;52.222;20.916;2024-03-08T05:03:04;84.17;;;35.37;;
21777;SDS011;11050;52.222;20.916;2024-03-08T05:05:30;76.57;;;35.17;;
21777;SDS011;11050;52.222;20.916;2024-03-08T05:07:56;83.40;;;34.77;;
21777;SDS011;11050;52.222;20.916;2024-03-08T05:10:21;83.63;;;36.23;;
21777;SDS011;11050;52.222;20.916;2024-03-08T05:12:47;81.93;;;35.47;;
21777;SDS011;11050;52.222;20.916;2024-03-08T05:15:13;79.73;;;34.30;;
21777;SDS011;11050;52.222;20.916;2024-03-08T05:17:39;81.43;;;34.97;;
21777;SDS011;11050;52.222;20.916;2024-03-08T05:20:05;74.03;;;32.93;;
21777;SDS011;11050;52.222;20.916;2024-03-08T05:22:37;76.27;;;35.33;;
21777;SDS011;11050;52.222;20.916;2024-03-08T05:25:03;81.00;;;37.03;;
21777;SDS011;11050;52.222;20.916;2024-03-08T05:27:29;90.00;;;40.57;;
21777;SDS011;11050;52.222;20.916;2024-03-08T05:29:55;80.23;;;36.40;;
21777;SDS011;11050;52.222;20.916;2024-03-08T05:32:20;79.47;;;36.37;;
21777;SDS011;11050;52.222;20.916;2024-03-08T05:34:46;85.63;;;37.13;;
21777;SDS011;11050;52.222;20.916;2024-03-08T05:37:12;92.77;;;39.60;;
21777;SDS011;11050;52.222;20.916;2024-03-08T05:39:37;79.87;;;38.40;;
21777;SDS011;11050;52.222;20.916;2024-03-08T05:42:03;85.13;;;40.07;;
21777;SDS011;11050;52.222;20.916;2024-03-08T05:44:29;87.13;;;36.60;;
21777;SDS011;11050;52.222;20.916;2024-03-08T05:46:55;85.83;;;37.87;;
21777;SDS011;11050;52.222;20.916;2024-03-08T05:49:21;86.53;;;37.70;;
21777;SDS011;11050;52.222;20.916;2024-03-08T05:51:47;88.23;;;38.50;;
21777;SDS011;11050;52.222;20.916;2024-03-08T05:54:13;78.97;;;37.43;;
21777;SDS011;11050;52.222;20.916;2024-03-08T05:56:39;83.53;;;38.67;;
21777;SDS011;11050;52.222;20.916;2024-03-08T05:59:09;89.60;;;37.83;;
21777;SDS011;11050;52.222;20.916;2024-03-08T06:01:36;79.03;;;37.33;;
21777;SDS011;11050;52.222;20.916;2024-03-08T06:04:03;90.13;;;38.20;;
21777;SDS011;11050;52.222;20.916;2024-03-08T06:06:29;82.87;;;36.83;;
21777;SDS011;11050;52.222;20.916;2024-03-08T06:08:55;85.77;;;39.43;;
21777;SDS011;11050;52.222;20.916;2024-03-08T06:11:24;87.23;;;40.37;;
21777;SDS011;11050;52.222;20.916;2024-03-08T06:13:55;85.53;;;39.17;;
21777;SDS011;11050;52.222;20.916;2024-03-08T06:16:25;86.00;;;40.10;;
21777;SDS011;11050;52.222;20.916;2024-03-08T06:18:54;87.97;;;39.63;;
21777;SDS011;11050;52.222;20.916;2024-03-08T06:21:24;90.33;;;39.97;;
21777;SDS011;11050;52.222;20.916;2024-03-08T06:23:53;85.60;;;39.60;;
21777;SDS011;11050;52.222;20.916;2024-03-08T06:26:25;87.23;;;39.23;;
21777;SDS011;11050;52.222;20.916;2024-03-08T06:28:53;85.03;;;38.93;;
21777;SDS011;11050;52.222;20.916;2024-03-08T06:31:20;88.10;;;38.60;;
21777;SDS011;11050;52.222;20.916;2024-03-08T06:33:46;85.00;;;37.93;;
21777;SDS011;11050;52.222;20.916;2024-03-08T06:36:15;85.67;;;38.67;;
21777;SDS011;11050;52.222;20.916;2024-03-08T06:38:46;88.40;;;39.63;;
21777;SDS011;11050;52.222;20.916;2024-03-08T06:41:15;92.90;;;40.57;;
21777;SDS011;11050;52.222;20.916;2024-03-08T06:43:42;87.73;;;41.23;;
21777;SDS011;11050;52.222;20.916;2024-03-08T06:46:09;89.23;;;40.70;;
21777;SDS011;11050;52.222;20.916;2024-03-08T06:48:37;98.93;;;43.17;;
21777;SDS011;11050;52.222;20.916;2024-03-08T06:51:06;95.60;;;43.40;;
21777;SDS011;11050;52.222;20.916;2024-03-08T06:53:32;97.83;;;43.43;;
21777;SDS011;11050;52.222;20.916;2024-03-08T06:56:00;97.90;;;44.97;;
21777;SDS011;11050;52.222;20.916;2024-03-08T06:58:27;96.00;;;42.93;;
21777;SDS011;11050;52.222;20.916;2024-03-08T07:00:53;96.43;;;44.80;;
21777;SDS011;11050;52.222;20.916;2024-03-08T07:03:23;94.13;;;44.03;;
21777;SDS011;11050;52.222;20.916;2024-03-08T07:05:49;97.00;;;44.07;;
21777;SDS011;11050;52.222;20.916;2024-03-08T07:08:15;82.07;;;40.60;;
21777;SDS011;11050;52.222;20.916;2024-03-08T07:10:41;92.97;;;43.43;;
21777;SDS011;11050;52.222;20.916;2024-03-08T07:13:10;89.30;;;40.97;;
21777;SDS011;11050;52.222;20.916;2024-03-08T07:15:35;83.60;;;41.17;;
21777;SDS011;11050;52.222;20.916;2024-03-08T07:18:01;78.37;;;37.87;;
21777;SDS011;11050;52.222;20.916;2024-03-08T07:20:27;83.03;;;37.97;;
21777;SDS011;11050;52.222;20.916;2024-03-08T07:22:53;93.30;;;38.50;;
21777;SDS011;11050;52.222;20.916;2024-03-08T07:25:19;86.77;;;37.93;;
21777;SDS011;11050;52.222;20.916;2024-03-08T07:27:52;76.07;;;34.07;;
21777;SDS011;11050;52.222;20.916;2024-03-08T07:30:23;71.43;;;33.33;;
21777;SDS011;11050;52.222;20.916;2024-03-08T07:33:09;75.67;;;34.93;;
21777;SDS011;11050;52.222;20.916;2024-03-08T07:35:39;67.83;;;33.57;;
21777;SDS011;11050;52.222;20.916;2024-03-08T07:38:09;68.03;;;32.97;;
21777;SDS011;11050;52.222;20.916;2024-03-08T07:40:38;57.07;;;27.50;;
21777;SDS011;11050;52.222;20.916;2024-03-08T07:43:08;69.07;;;31.83;;
21777;SDS011;11050;52.222;20.916;2024-03-08T07:45:35;61.70;;;28.87;;
21777;SDS011;11050;52.222;20.916;2024-03-08T07:48:02;50.83;;;24.30;;
21777;SDS011;11050;52.222;20.916;2024-03-08T07:50:29;49.33;;;23.50;;
21777;SDS011;11050;52.222;20.916;2024-03-08T07:52:54;41.87;;;21.83;;
21777;SDS011;11050;52.222;20.916;2024-03-08T07:55:20;43.50;;;21.53;;
21777;SDS011;11050;52.222;20.916;2024-03-08T07:57:49;41.73;;;21.30;;
21777;SDS011;11050;52.222;20.916;2024-03-08T08:00:15;38.20;;;21.27;;
21777;SDS011;11050;52.222;20.916;2024-03-08T08:02:46;42.80;;;19.17;;
21777;SDS011;11050;52.222;20.916;2024-03-08T08:05:14;40.47;;;20.30;;
21777;SDS011;11050;52.222;20.916;2024-03-08T08:07:46;43.40;;;20.50;;
21777;SDS011;11050;52.222;20.916;2024-03-08T08:10:15;36.57;;;19.27;;
21777;SDS011;11050;52.222;20.916;2024-03-08T08:12:47;41.50;;;19.17;;
21777;SDS011;11050;52.222;20.916;2024-03-08T08:15:14;35.33;;;17.10;;
21777;SDS011;11050;52.222;20.916;2024-03-08T08:17:43;34.33;;;17.57;;
21777;SDS011;11050;52.222;20.916;2024-03-08T08:20:10;31.57;;;16.97;;
21777;SDS011;11050;52.222;20.916;2024-03-08T08:22:38;32.80;;;16.00;;
21777;SDS011;11050;52.222;20.916;2024-03-08T08:25:05;31.90;;;15.03;;
21777;SDS011;11050;52.222;20.916;2024-03-08T08:27:37;27.40;;;13.83;;
21777;SDS011;11050;52.222;20.916;2024-03-08T08:30:05;26.07;;;13.27;;
21777;SDS011;11050;52.222;20.916;2024-03-08T08:32:33;27.43;;;13.37;;
21777;SDS011;11050;52.222;20.916;2024-03-08T08:35:01;25.83;;;14.00;;
21777;SDS011;11050;52.222;20.916;2024-03-08T08:37:29;28.27;;;13.57;;
21777;SDS011;11050;52.222;20.916;2024-03-08T08:39:56;23.40;;;12.60;;
21777;SDS011;11050;52.222;20.916;2024-03-08T08:42:22;24.80;;;13.77;;
21777;SDS011;11050;52.222;20.916;2024-03-08T08:44:49;27.07;;;13.50;;
21777;SDS011;11050;52.222;20.916;2024-03-08T08:47:16;27.83;;;14.20;;
21777;SDS011;11050;52.222;20.916;2024-03-08T08:49:44;23.47;;;12.97;;
21777;SDS011;11050;52.222;20.916;2024-03-08T08:52:11;22.43;;;13.27;;
21777;SDS011;11050;52.222;20.916;2024-03-08T08:54:37;26.33;;;12.73;;
21777;SDS011;11050;52.222;20.916;2024-03-08T08:57:03;27.80;;;13.63;;
21777;SDS011;11050;52.222;20.916;2024-03-08T08:59:33;24.77;;;13.53;;
21777;SDS011;11050;52.222;20.916;2024-03-08T09:02:04;24.50;;;12.73;;
21777;SDS011;11050;52.222;20.916;2024-03-08T09:04:31;24.77;;;12.50;;
21777;SDS011;11050;52.222;20.916;2024-03-08T09:06:57;25.97;;;12.97;;
21777;SDS011;11050;52.222;20.916;2024-03-08T09:09:23;24.23;;;12.80;;
21777;SDS011;11050;52.222;20.916;2024-03-08T09:11:50;25.50;;;12.63;;
21777;SDS011;11050;52.222;20.916;2024-03-08T09:14:16;24.30;;;13.03;;
21777;SDS011;11050;52.222;20.916;2024-03-08T09:16:42;26.50;;;12.63;;
21777;SDS011;11050;52.222;20.916;2024-03-08T09:19:08;23.70;;;12.20;;
21777;SDS011;11050;52.222;20.916;2024-03-08T09:21:36;28.10;;;12.37;;
21777;SDS011;11050;52.222;20.916;2024-03-08T09:24:02;24.90;;;12.83;;
21777;SDS011;11050;52.222;20.916;2024-03-08T09:26:28;25.77;;;13.30;;
21777;SDS011;11050;52.222;20.916;2024-03-08T09:28:54;29.73;;;13.30;;
21777;SDS011;11050;52.222;20.916;2024-03-08T09:31:20;26.03;;;12.90;;
21777;SDS011;11050;52.222;20.916;2024-03-08T09:33:46;22.33;;;12.43;;
21777;SDS011;11050;52.222;20.916;2024-03-08T09:36:12;28.83;;;13.53;;
21777;SDS011;11050;52.222;20.916;2024-03-08T09:38:39;24.13;;;11.93;;
21777;SDS011;11050;52.222;20.916;2024-03-08T09:41:05;24.10;;;12.00;;
21777;SDS011;11050;52.222;20.916;2024-03-08T09:43:31;24.63;;;11.97;;
21777;SDS011;11050;52.222;20.916;2024-03-08T09:45:58;22.87;;;12.27;;
21777;SDS011;11050;52.222;20.916;2024-03-08T09:48:25;29.70;;;12.63;;
21777;SDS011;11050;52.222;20.916;2024-03-08T09:50:51;24.00;;;12.20;;
21777;SDS011;11050;52.222;20.916;2024-03-08T09:53:19;25.43;;;13.03;;
21777;SDS011;11050;52.222;20.916;2024-03-08T09:55:47;25.17;;;12.70;;
21777;SDS011;11050;52.222;20.916;2024-03-08T09:58:15;27.03;;;13.00;;
21777;SDS011;11050;52.222;20.916;2024-03-08T10:00:47;22.37;;;12.77;;
21777;SDS011;11050;52.222;20.916;2024-03-08T10:03:13;22.23;;;11.97;;
21777;SDS011;11050;52.222;20.916;2024-03-08T10:05:41;24.57;;;12.60;;
21777;SDS011;11050;52.222;20.916;2024-03-08T10:08:09;28.77;;;12.50;;
21777;SDS011;11050;52.222;20.916;2024-03-08T10:10:36;23.27;;;12.37;;
21777;SDS011;11050;52.222;20.916;2024-03-08T10:13:05;26.57;;;13.93;;
21777;SDS011;11050;52.222;20.916;2024-03-08T10:15:32;23.67;;;13.70;;
21777;SDS011;11050;52.222;20.916;2024-03-08T10:17:58;21.70;;;13.53;;
21777;SDS011;11050;52.222;20.916;2024-03-08T10:20:24;34.27;;;14.53;;
21777;SDS011;11050;52.222;20.916;2024-03-08T10:22:51;27.20;;;13.53;;
21777;SDS011;11050;52.222;20.916;2024-03-08T10:25:19;24.60;;;13.70;;
21777;SDS011;11050;52.222;20.916;2024-03-08T10:27:44;30.00;;;13.80;;
21777;SDS011;11050;52.222;20.916;2024-03-08T10:30:11;31.30;;;14.47;;
21777;SDS011;11050;52.222;20.916;2024-03-08T10:32:40;31.07;;;13.70;;
21777;SDS011;11050;52.222;20.916;2024-03-08T10:35:07;30.80;;;15.07;;
21777;SDS011;11050;52.222;20.916;2024-03-08T10:37:33;30.10;;;15.40;;
21777;SDS011;11050;52.222;20.916;2024-03-08T10:40:06;27.60;;;14.33;;
21777;SDS011;11050;52.222;20.916;2024-03-08T10:42:41;31.93;;;14.80;;
21777;SDS011;11050;52.222;20.916;2024-03-08T10:45:38;28.60;;;15.53;;
21777;SDS011;11050;52.222;20.916;2024-03-08T10:48:26;29.07;;;16.40;;
21777;SDS011;11050;52.222;20.916;2024-03-08T10:51:02;32.03;;;16.43;;
21777;SDS011;11050;52.222;20.916;2024-03-08T10:53:29;29.63;;;16.37;;
21777;SDS011;11050;52.222;20.916;2024-03-08T10:55:56;30.27;;;17.00;;
21777;SDS011;11050;52.222;20.916;2024-03-08T10:58:23;30.20;;;15.80;;
21777;SDS011;11050;52.222;20.916;2024-03-08T11:00:55;31.77;;;16.13;;
21777;SDS011;11050;52.222;20.916;2024-03-08T11:06:07;32.60;;;15.87;;
21777;SDS011;11050;52.222;20.916;2024-03-08T11:08:39;27.27;;;15.70;;
21777;SDS011;11050;52.222;20.916;2024-03-08T11:11:05;27.17;;;15.87;;
21777;SDS011;11050;52.222;20.916;2024-03-08T11:13:52;25.17;;;14.80;;
21777;SDS011;11050;52.222;20.916;2024-03-08T11:18:53;32.00;;;16.40;;
21777;SDS011;11050;52.222;20.916;2024-03-08T11:21:39;31.77;;;17.63;;
21777;SDS011;11050;52.222;20.916;2024-03-08T11:24:12;22.27;;;14.63;;
21777;SDS011;11050;52.222;20.916;2024-03-08T11:26:39;32.30;;;18.97;;
21777;SDS011;11050;52.222;20.916;2024-03-08T11:34:54;30.23;;;16.52;;
21777;SDS011;11050;52.222;20.916;2024-03-08T11:37:20;29.92;;;19.00;;
21777;SDS011;11050;52.222;20.916;2024-03-08T11:42:13;31.15;;;17.55;;
21777;SDS011;11050;52.222;20.916;2024-03-08T11:44:42;34.65;;;17.45;;
21777;SDS011;11050;52.222;20.916;2024-03-08T11:47:12;31.48;;;18.33;;
21777;SDS011;11050;52.222;20.916;2024-03-08T11:49:39;31.98;;;19.15;;
21777;SDS011;11050;52.222;20.916;2024-03-08T11:52:12;31.90;;;16.15;;
21777;SDS011;11050;52.222;20.916;2024-03-08T11:54:39;30.00;;;19.02;;
21777;SDS011;11050;52.222;20.916;2024-03-08T11:57:06;29.83;;;18.42;;
21777;SDS011;11050;52.222;20.916;2024-03-08T11:59:34;29.88;;;17.55;;
21777;SDS011;11050;52.222;20.916;2024-03-08T12:02:01;33.63;;;18.45;;
21777;SDS011;11050;52.222;20.916;2024-03-08T12:04:31;27.35;;;17.90;;
21777;SDS011;11050;52.222;20.916;2024-03-08T12:07:01;31.48;;;18.63;;
21777;SDS011;11050;52.222;20.916;2024-03-08T12:09:33;33.80;;;17.88;;
21777;SDS011;11050;52.222;20.916;2024-03-08T12:12:01;29.95;;;18.50;;
21777;SDS011;11050;52.222;20.916;2024-03-08T12:14:29;30.15;;;16.85;;
21777;SDS011;11050;52.222;20.916;2024-03-08T12:16:57;25.92;;;17.05;;
21777;SDS011;11050;52.222;20.916;2024-03-08T12:19:23;24.83;;;16.73;;
21777;SDS011;11050;52.222;20.916;2024-03-08T12:21:49;27.35;;;17.92;;
21777;SDS011;11050;52.222;20.916;2024-03-08T12:24:15;27.83;;;18.58;;
21777;SDS011;11050;52.222;20.916;2024-03-08T12:26:46;32.70;;;18.77;;
21777;SDS011;11050;52.222;20.916;2024-03-08T12:29:14;28.50;;;18.80;;
21777;SDS011;11050;52.222;20.916;2024-03-08T12:31:53;32.22;;;19.60;;
21777;SDS011;11050;52.222;20.916;2024-03-08T12:34:23;29.58;;;18.80;;
21777;SDS011;11050;52.222;20.916;2024-03-08T12:36:50;26.45;;;16.77;;
21777;SDS011;11050;52.222;20.916;2024-03-08T12:39:19;25.05;;;16.67;;
21777;SDS011;11050;52.222;20.916;2024-03-08T12:41:55;30.38;;;18.85;;
21777;SDS011;11050;52.222;20.916;2024-03-08T12:44:27;25.67;;;17.50;;
21777;SDS011;11050;52.222;20.916;2024-03-08T12:46:53;26.30;;;18.73;;
21777;SDS011;11050;52.222;20.916;2024-03-08T12:49:19;30.73;;;18.95;;
21777;SDS011;11050;52.222;20.916;2024-03-08T12:51:48;30.63;;;18.23;;
21777;SDS011;11050;52.222;20.916;2024-03-08T12:54:14;25.63;;;17.60;;
21777;SDS011;11050;52.222;20.916;2024-03-08T12:56:40;27.75;;;17.90;;
21777;SDS011;11050;52.222;20.916;2024-03-08T12:59:06;26.40;;;17.23;;
21777;SDS011;11050;52.222;20.916;2024-03-08T13:01:34;32.60;;;19.13;;
21777;SDS011;11050;52.222;20.916;2024-03-08T13:04:02;25.42;;;17.35;;
21777;SDS011;11050;52.222;20.916;2024-03-08T13:06:29;23.58;;;17.20;;
21777;SDS011;11050;52.222;20.916;2024-03-08T13:08:56;25.23;;;18.20;;
21777;SDS011;11050;52.222;20.916;2024-03-08T13:11:23;27.33;;;16.40;;
21777;SDS011;11050;52.222;20.916;2024-03-08T13:13:52;27.55;;;18.38;;
21777;SDS011;11050;52.222;20.916;2024-03-08T13:16:18;28.55;;;17.42;;
21777;SDS011;11050;52.222;20.916;2024-03-08T13:18:44;26.17;;;17.85;;
21777;SDS011;11050;52.222;20.916;2024-03-08T13:21:15;30.70;;;18.63;;
21777;SDS011;11050;52.222;20.916;2024-03-08T13:23:45;28.00;;;17.77;;
21777;SDS011;11050;52.222;20.916;2024-03-08T13:26:14;28.25;;;16.77;;
21777;SDS011;11050;52.222;20.916;2024-03-08T13:28:41;22.90;;;16.48;;
21777;SDS011;11050;52.222;20.916;2024-03-08T13:31:10;25.95;;;16.23;;
21777;SDS011;11050;52.222;20.916;2024-03-08T13:33:39;24.65;;;15.75;;
21777;SDS011;11050;52.222;20.916;2024-03-08T13:36:07;24.98;;;15.90;;
21777;SDS011;11050;52.222;20.916;2024-03-08T13:38:43;26.08;;;16.35;;
21777;SDS011;11050;52.222;20.916;2024-03-08T13:41:11;25.48;;;17.48;;
21777;SDS011;11050;52.222;20.916;2024-03-08T13:43:39;20.13;;;15.63;;
21777;SDS011;11050;52.222;20.916;2024-03-08T13:46:11;25.38;;;16.55;;
21777;SDS011;11050;52.222;20.916;2024-03-08T13:48:37;29.70;;;16.73;;
21777;SDS011;11050;52.222;20.916;2024-03-08T13:51:06;21.90;;;15.65;;
21777;SDS011;11050;52.222;20.916;2024-03-08T13:53:35;24.33;;;17.08;;
21777;SDS011;11050;52.222;20.916;2024-03-08T13:56:04;27.15;;;15.52;;
21777;SDS011;11050;52.222;20.916;2024-03-08T13:58:30;25.08;;;15.55;;
21777;SDS011;11050;52.222;20.916;2024-03-08T14:00:56;28.88;;;15.48;;
21777;SDS011;11050;52.222;20.916;2024-03-08T14:03:22;26.00;;;16.00;;
21777;SDS011;11050;52.222;20.916;2024-03-08T14:05:49;27.40;;;15.88;;
21777;SDS011;11050;52.222;20.916;2024-03-08T14:08:15;25.30;;;14.65;;
21777;SDS011;11050;52.222;20.916;2024-03-08T14:10:42;25.88;;;16.38;;
21777;SDS011;11050;52.222;20.916;2024-03-08T14:13:11;21.85;;;15.00;;
21777;SDS011;11050;52.222;20.916;2024-03-08T14:15:38;28.20;;;15.98;;
21777;SDS011;11050;52.222;20.916;2024-03-08T14:18:07;24.17;;;16.00;;
21777;SDS011;11050;52.222;20.916;2024-03-08T14:20:33;25.55;;;17.00;;
21777;SDS011;11050;52.222;20.916;2024-03-08T14:22:59;23.75;;;15.75;;
21777;SDS011;11050;52.222;20.916;2024-03-08T14:25:25;28.05;;;15.93;;
21777;SDS011;11050;52.222;20.916;2024-03-08T14:27:51;23.85;;;14.98;;